createdAt,value
2022-11-25T00:03:46.198Z,3.00
2022-11-25T00:08:51.909Z,3.01
2022-11-25T00:13:55.223Z,2.99
2022-11-25T00:18:59.209Z,2.90
2022-11-25T00:24:05.295Z,2.89
2022-11-25T00:29:11.040Z,2.86
2022-11-25T00:34:15.357Z,2.85
2022-11-25T00:39:19.961Z,2.77
2022-11-25T00:44:40.254Z,2.72
2022-11-25T00:49:45.197Z,2.61
2022-11-25T00:54:49.970Z,2.51
2022-11-25T00:59:52.878Z,2.51
2022-11-25T01:04:57.061Z,2.36
2022-11-25T01:10:01.144Z,2.33
2022-11-25T01:15:03.965Z,2.33
2022-11-25T01:20:08.237Z,2.32
2022-11-25T01:25:12.339Z,2.26
2022-11-25T01:30:15.948Z,2.30
2022-11-25T01:35:18.647Z,2.30
2022-11-25T01:40:23.608Z,2.25
2022-11-25T01:45:36.230Z,2.18
2022-11-25T01:50:39.878Z,2.10
2022-11-25T01:55:48.807Z,2.13
2022-11-25T02:00:52.144Z,2.09
2022-11-25T02:06:02.144Z,2.07
2022-11-25T02:11:07.977Z,2.10
2022-11-25T02:16:10.977Z,2.17
2022-11-25T02:21:19.050Z,2.28
2022-11-25T02:26:23.596Z,2.31
2022-11-25T02:31:26.614Z,2.35
2022-11-25T02:36:29.529Z,2.47
2022-11-25T02:41:35.953Z,2.48
2022-11-25T02:46:40.892Z,2.61
2022-11-25T02:51:45.450Z,2.65
2022-11-25T02:56:49.769Z,2.70
2022-11-25T03:01:52.601Z,2.76
2022-11-25T03:06:55.440Z,2.79
2022-11-25T03:12:19.073Z,2.84
2022-11-25T03:17:22.077Z,2.90
2022-11-25T03:22:25.289Z,2.94
2022-11-25T03:27:30.484Z,2.98
2022-11-25T03:32:35.117Z,3.06
2022-11-25T03:37:38.813Z,3.16
2022-11-25T03:42:44.594Z,3.25
2022-11-25T03:47:47.665Z,3.35
2022-11-25T03:52:50.832Z,3.40
2022-11-25T03:57:57.188Z,3.48
2022-11-25T04:03:01.500Z,3.52
2022-11-25T04:08:06.853Z,3.54
2022-11-25T04:13:12.442Z,3.65
2022-11-25T04:18:19.201Z,3.71
2022-11-25T04:23:22.943Z,3.78
2022-11-25T04:28:36.143Z,3.81
2022-11-25T04:33:39.238Z,3.86
2022-11-25T04:38:43.369Z,3.89
2022-11-25T04:43:47.682Z,3.97
2022-11-25T04:48:52.036Z,4.03
2022-11-25T04:53:56.460Z,4.13
2022-11-25T04:59:19.823Z,4.21
2022-11-25T05:04:23.973Z,4.32
2022-11-25T05:09:27.053Z,4.39
2022-11-25T05:14:57.805Z,4.45
2022-11-25T05:20:02.025Z,4.51
2022-11-25T05:25:07.433Z,4.55
2022-11-25T05:30:17.556Z,4.55
2022-11-25T05:35:21.802Z,4.55
2022-11-25T05:40:24.662Z,4.55
2022-11-25T05:45:35.571Z,4.56
2022-11-25T05:50:40.501Z,4.64
2022-11-25T05:55:57.136Z,4.68
2022-11-25T06:01:21.226Z,4.73
2022-11-25T06:06:24.434Z,4.75
2022-11-25T06:11:27.397Z,4.78
2022-11-25T06:16:31.648Z,4.81
2022-11-25T06:21:53.780Z,4.83
2022-11-25T06:26:57.177Z,4.86
2022-11-25T06:32:01.480Z,4.88
2022-11-25T06:37:24.436Z,4.93
2022-11-25T06:42:27.216Z,5.00
2022-11-25T06:47:31.431Z,5.00
2022-11-25T06:52:34.621Z,5.04
2022-11-25T06:57:37.477Z,5.05
2022-11-25T07:02:47.976Z,5.10
2022-11-25T07:07:51.482Z,5.11
2022-11-25T07:12:54.296Z,5.12
2022-11-25T07:17:58.445Z,5.12
2022-11-25T07:23:01.376Z,5.12
2022-11-25T07:28:04.374Z,5.12
2022-11-25T07:33:08.696Z,5.14
2022-11-25T07:38:11.827Z,5.16
2022-11-25T07:43:15.302Z,5.20
2022-11-25T07:48:20.105Z,5.24
2022-11-25T07:53:23.089Z,5.27
2022-11-25T07:58:25.912Z,5.37
2022-11-25T08:03:30.241Z,5.46
2022-11-25T08:08:33.365Z,5.53
2022-11-25T08:13:36.206Z,5.58
2022-11-25T08:18:40.515Z,5.63
2022-11-25T08:23:47.523Z,5.73
2022-11-25T08:28:51.366Z,5.80
2022-11-25T08:33:56.650Z,5.90
2022-11-25T08:39:01.321Z,6.01
2022-11-25T08:44:07.714Z,6.16
2022-11-25T08:49:14.936Z,6.34
2022-11-25T08:54:18.155Z,6.47
2022-11-25T08:59:22.786Z,6.51
2022-11-25T09:04:27.953Z,6.68
2022-11-25T09:09:30.901Z,6.97
2022-11-25T09:14:33.733Z,7.18
2022-11-25T09:19:38.230Z,7.30
2022-11-25T09:24:41.706Z,7.40
2022-11-25T09:29:44.958Z,7.44
2022-11-25T09:34:49.417Z,7.57
2022-11-25T09:39:55.946Z,7.66
2022-11-25T09:45:29.388Z,7.79
2022-11-25T09:50:44.266Z,7.80
2022-11-25T09:55:51.042Z,8.01
2022-11-25T10:00:54.980Z,8.13
2022-11-25T10:06:05.408Z,8.31
2022-11-25T10:11:18.504Z,8.62
2022-11-25T10:16:32.454Z,9.03
2022-11-25T10:21:36.717Z,9.60
2022-11-25T10:26:53.287Z,9.94
2022-11-25T10:32:19.541Z,10.29
2022-11-25T10:37:30.039Z,10.61
2022-11-25T10:42:32.869Z,10.18
2022-11-25T10:47:38.411Z,10.22
2022-11-25T10:52:49.281Z,10.60
2022-11-25T10:57:53.010Z,10.73
2022-11-25T11:02:57.037Z,10.52
2022-11-25T11:08:19.041Z,10.70
2022-11-25T11:13:26.985Z,10.54
2022-11-25T11:18:40.916Z,10.77
2022-11-25T11:23:50.992Z,10.69
2022-11-25T11:29:03.145Z,10.88
2022-11-25T11:34:30.629Z,11.29
2022-11-25T11:40:01.990Z,11.60
2022-11-25T11:45:17.250Z,11.49
2022-11-25T11:50:27.936Z,12.53
2022-11-25T11:56:05.594Z,12.95
2022-11-25T12:01:26.338Z,12.58
2022-11-25T12:06:32.651Z,12.52
2022-11-25T12:11:41.359Z,12.60
2022-11-25T12:16:49.584Z,12.53
2022-11-25T12:21:56.669Z,12.15
2022-11-25T12:27:02.427Z,12.10
2022-11-25T12:32:37.123Z,12.09
2022-11-25T12:37:48.949Z,12.17
2022-11-25T12:42:58.520Z,11.90
2022-11-25T12:48:01.260Z,11.82
2022-11-25T12:53:13.353Z,11.81
2022-11-25T12:58:46.217Z,11.59
2022-11-25T13:04:15.653Z,11.51
2022-11-25T13:09:36.944Z,11.26
2022-11-25T13:15:13.607Z,11.10
2022-11-25T13:20:49.427Z,11.07
2022-11-25T13:25:54.298Z,11.01
2022-11-25T13:31:19.218Z,10.94
2022-11-25T13:36:23.249Z,10.88
2022-11-25T13:41:35.870Z,10.90
2022-11-25T13:46:43.210Z,10.95
2022-11-25T13:51:50.718Z,11.03
2022-11-25T13:57:17.897Z,10.63
2022-11-25T14:02:45.074Z,10.56
2022-11-25T14:08:07.579Z,10.54
2022-11-25T14:13:27.662Z,10.54
2022-11-25T14:24:16.629Z,10.48
2022-11-25T14:29:24.532Z,10.37
2022-11-25T14:34:34.581Z,10.33
2022-11-25T14:39:45.152Z,10.29
2022-11-25T14:44:50.369Z,10.13
2022-11-25T14:50:18.801Z,9.94
2022-11-25T14:55:27.917Z,9.77
2022-11-25T15:00:30.818Z,9.75
2022-11-25T15:05:37.755Z,9.64
2022-11-25T15:10:50.166Z,9.53
2022-11-25T15:15:55.628Z,9.44
2022-11-25T15:21:00.779Z,9.34
2022-11-25T15:26:05.800Z,9.28
2022-11-25T15:31:12.672Z,9.25
2022-11-25T15:36:17.087Z,9.19
2022-11-25T15:41:25.809Z,9.09
2022-11-25T15:46:30.498Z,9.07
2022-11-25T15:51:39.877Z,9.00
2022-11-25T15:56:46.951Z,8.99
2022-11-25T16:01:49.831Z,8.97
2022-11-25T16:06:55.728Z,8.96
2022-11-25T16:12:06.227Z,8.90
2022-11-25T16:17:12.821Z,8.85
2022-11-25T16:22:19.797Z,8.80
2022-11-25T16:27:24.749Z,8.77
2022-11-25T16:32:30.065Z,8.73
2022-11-25T16:37:34.276Z,8.70
2022-11-25T16:42:37.174Z,8.64
2022-11-25T16:47:39.988Z,8.64
2022-11-25T16:52:44.882Z,8.50
2022-11-25T16:57:48.332Z,8.44
2022-11-25T17:02:51.377Z,8.41
2022-11-25T17:07:56.240Z,8.39
2022-11-25T17:12:59.351Z,8.39
2022-11-25T17:18:03.067Z,8.39
2022-11-25T17:23:13.229Z,8.40
2022-11-25T17:28:18.454Z,8.38
2022-11-25T17:33:21.653Z,8.28
2022-11-25T17:38:25.908Z,8.28
2022-11-25T17:43:34.334Z,8.28
2022-11-25T17:48:38.041Z,8.26
2022-11-25T17:53:42.686Z,8.23
2022-11-25T17:58:45.830Z,8.16
2022-11-25T18:03:50.697Z,8.08
2022-11-25T18:08:54.810Z,8.05
2022-11-25T18:13:57.646Z,8.02
2022-11-25T18:19:00.388Z,8.01
2022-11-25T18:24:05.125Z,8.02
2022-11-25T18:29:13.401Z,8.02
2022-11-25T18:34:17.777Z,7.99
2022-11-25T18:39:22.113Z,7.93
2022-11-25T18:44:27.239Z,7.85
2022-11-25T18:49:30.219Z,7.81
2022-11-25T18:54:34.496Z,7.73
2022-11-25T18:59:37.805Z,7.68
2022-11-25T19:04:40.840Z,7.69
2022-11-25T19:09:44.969Z,7.70
2022-11-25T19:14:50.182Z,7.71
2022-11-25T19:19:52.964Z,7.68
2022-11-25T19:24:59.050Z,7.63
2022-11-25T19:30:03.028Z,7.63
2022-11-25T19:35:09.489Z,7.60
2022-11-25T19:40:18.615Z,7.55
2022-11-25T19:45:21.913Z,7.41
2022-11-25T19:50:27.738Z,7.38
2022-11-25T19:55:32.475Z,7.35
2022-11-25T20:00:35.924Z,7.36
2022-11-25T20:05:39.689Z,7.36
2022-11-25T20:10:43.938Z,7.37
2022-11-25T20:15:47.577Z,7.35
2022-11-25T20:20:56.801Z,7.31
2022-11-25T20:26:01.207Z,7.31
2022-11-25T20:31:04.041Z,7.23
2022-11-25T20:36:12.421Z,7.12
2022-11-25T20:41:18.423Z,6.97
2022-11-25T20:46:26.183Z,6.85
2022-11-25T20:51:29.226Z,6.72
2022-11-25T20:56:34.429Z,6.61
2022-11-25T21:01:37.329Z,6.52
2022-11-25T21:06:43.032Z,6.43
2022-11-25T21:11:47.384Z,6.34
2022-11-25T21:16:50.196Z,6.23
2022-11-25T21:21:53.413Z,6.20
2022-11-25T21:26:58.563Z,6.22
2022-11-25T21:32:01.377Z,6.24
2022-11-25T21:37:04.276Z,6.24
2022-11-25T21:42:17.539Z,6.24
2022-11-25T21:47:23.426Z,6.26
2022-11-25T21:52:26.321Z,6.15
2022-11-25T21:57:30.917Z,6.19
2022-11-25T22:02:33.772Z,6.23
2022-11-25T22:07:36.690Z,6.23
2022-11-25T22:12:42.911Z,6.21
2022-11-25T22:17:45.931Z,6.23
2022-11-25T22:22:48.759Z,6.24
2022-11-25T22:27:53.292Z,6.25
2022-11-25T22:33:00.923Z,6.26
2022-11-25T22:38:03.648Z,6.30
2022-11-25T22:43:16.692Z,6.26
2022-11-25T22:48:21.910Z,6.26
2022-11-25T22:53:25.615Z,6.24
2022-11-25T22:58:29.716Z,6.23
2022-11-25T23:03:34.206Z,6.18
2022-11-25T23:08:37.493Z,6.11
2022-11-25T23:13:41.577Z,6.12
2022-11-25T23:18:47.204Z,6.10
2022-11-25T23:23:50.487Z,6.10
2022-11-25T23:28:54.798Z,6.09
2022-11-25T23:33:57.778Z,6.07
2022-11-25T23:39:03.495Z,6.07
2022-11-25T23:44:15.841Z,6.07
2022-11-25T23:49:24.032Z,6.10
2022-11-25T23:54:32.197Z,6.12
2022-11-25T23:59:36.314Z,6.17
